Time,TemperatureF,DewpointF,PressureIn,WindDirection,WindDirectionDegrees,WindSpeedMPH,WindSpeedGustMPH,Humidity,HourlyPrecipIn,Conditions,Clouds,dailyrainin,SolarRadiationWatts/m^2,SoftwareType,DateUTC
2013-07-28 00:02:00,63.4,61.9,29.97,WNW,291,0.0,0.0,95,0.00,,,0.00,0,Wunderground v.1.15,2013-07-28 04:02:00,
2013-07-28 00:12:00,63.3,61.8,29.96,WNW,290,0.0,0.0,95,0.00,,,0.00,0,Wunderground v.1.15,2013-07-28 04:12:00,
2013-07-28 00:17:00,63.2,61.7,29.96,WNW,290,0.0,0.0,95,0.00,,,0.00,0,Wunderground v.1.15,2013-07-28 04:17:00,
2013-07-28 00:22:00,63.3,61.8,29.96,West,279,0.0,1.0,95,0.00,,,0.00,0,Wunderground v.1.15,2013-07-28 04:22:00,
2013-07-28 00:27:00,63.7,62.2,29.96,WNW,285,1.0,2.0,95,0.00,,,0.00,0,Wunderground v.1.15,2013-07-28 04:27:00,
2013-07-28 00:32:00,64.3,62.2,29.96,WNW,300,1.0,2.0,93,0.00,,,0.00,0,Wunderground v.1.15,2013-07-28 04:32:00,
2013-07-28 00:37:00,64.1,62.0,29.96,WNW,300,1.0,1.0,93,0.00,,,0.00,0,Wunderground v.1.15,2013-07-28 04:37:00,
2013-07-28 00:42:00,63.8,61.7,29.95,WNW,300,0.0,1.0,93,0.00,,,0.00,0,Wunderground v.1.15,2013-07-28 04:42:00,
2013-07-28 00:47:00,63.4,61.6,29.95,WNW,300,0.0,0.0,94,0.00,,,0.00,0,Wunderground v.1.15,2013-07-28 04:47:00,
2013-07-28 00:52:00,63.1,61.3,29.95,WNW,300,0.0,0.0,94,0.00,,,0.00,0,Wunderground v.1.15,2013-07-28 04:52:00,
2013-07-28 00:57:00,62.9,61.1,29.95,WNW,300,0.0,0.0,94,0.00,,,0.00,0,Wunderground v.1.15,2013-07-28 04:57:00,
2013-07-28 01:02:00,62.7,61.2,29.95,WNW,300,0.0,0.0,95,0.00,,,0.00,0,Wunderground v.1.15,2013-07-28 05:02:00,
2013-07-28 01:12:00,62.5,61.0,29.96,WNW,300,0.0,0.0,95,0.00,,,0.00,0,Wunderground v.1.15,2013-07-28 05:12:00,
2013-07-28 01:22:00,62.3,60.8,29.96,WNW,300,0.0,0.0,95,0.00,,,0.00,0,Wunderground v.1.15,2013-07-28 05:22:00,
2013-07-28 01:27:00,62.1,60.7,29.96,WNW,300,0.0,0.0,95,0.00,,,0.00,0,Wunderground v.1.15,2013-07-28 05:27:00,
2013-07-28 01:32:00,61.9,60.5,29.96,WNW,300,0.0,0.0,95,0.00,,,0.00,0,Wunderground v.1.15,2013-07-28 05:32:00,
2013-07-28 01:37:00,61.7,60.3,29.96,WNW,300,0.0,0.0,95,0.00,,,0.00,0,Wunderground v.1.15,2013-07-28 05:37:00,
2013-07-28 01:42:00,61.6,60.2,29.96,WNW,300,0.0,0.0,95,0.00,,,0.00,0,Wunderground v.1.15,2013-07-28 05:42:00,
2013-07-28 01:47:00,61.4,60.0,29.96,WNW,300,0.0,0.0,95,0.00,,,0.00,0,Wunderground v.1.15,2013-07-28 05:47:00,
2013-07-28 01:52:00,61.3,59.9,29.96,WNW,300,0.0,0.0,95,0.00,,,0.00,0,Wunderground v.1.15,2013-07-28 05:52:00,
2013-07-28 01:57:00,61.2,59.8,29.96,WNW,300,0.0,0.0,95,0.00,,,0.00,0,Wunderground v.1.15,2013-07-28 05:57:00,
2013-07-28 02:02:00,61.0,59.6,29.97,WNW,300,0.0,0.0,95,0.00,,,0.00,0,Wunderground v.1.15,2013-07-28 06:02:00,
2013-07-28 02:07:00,60.9,59.5,29.97,WNW,300,0.0,0.0,95,0.00,,,0.00,0,Wunderground v.1.15,2013-07-28 06:07:00,
2013-07-28 02:12:00,60.7,59.3,29.97,WNW,300,0.0,0.0,95,0.00,,,0.00,0,Wunderground v.1.15,2013-07-28 06:12:00,
2013-07-28 02:17:00,60.6,59.5,29.97,WNW,300,0.0,0.0,96,0.00,,,0.00,0,Wunderground v.1.15,2013-07-28 06:17:00,
2013-07-28 02:22:00,60.6,59.5,29.97,WNW,300,0.0,0.0,96,0.00,,,0.00,0,Wunderground v.1.15,2013-07-28 06:22:00,
2013-07-28 02:32:00,60.3,59.2,29.97,WNW,300,0.0,0.0,96,0.00,,,0.00,0,Wunderground v.1.15,2013-07-28 06:32:00,
2013-07-28 02:37:00,60.2,59.1,29.97,WNW,300,0.0,0.0,96,0.00,,,0.00,0,Wunderground v.1.15,2013-07-28 06:37:00,
2013-07-28 02:42:00,60.1,59.0,29.97,WNW,300,0.0,0.0,96,0.00,,,0.00,0,Wunderground v.1.15,2013-07-28 06:42:00,
2013-07-28 02:47:00,60.1,59.0,29.97,WNW,300,0.0,0.0,96,0.00,,,0.00,0,Wunderground v.1.15,2013-07-28 06:47:00,
2013-07-28 02:52:00,60.0,58.9,29.97,WNW,300,0.0,0.0,96,0.00,,,0.00,0,Wunderground v.1.15,2013-07-28 06:52:00,
2013-07-28 02:57:00,59.9,58.8,29.97,WNW,300,0.0,0.0,96,0.00,,,0.00,0,Wunderground v.1.15,2013-07-28 06:57:00,
2013-07-28 03:02:00,59.8,58.7,29.97,WNW,300,0.0,0.0,96,0.00,,,0.00,0,Wunderground v.1.15,2013-07-28 07:02:00,
2013-07-28 03:07:00,59.7,58.6,29.97,WNW,300,0.0,0.0,96,0.00,,,0.00,0,Wunderground v.1.15,2013-07-28 07:07:00,
2013-07-28 03:12:00,59.6,58.5,29.97,WNW,300,0.0,0.0,96,0.00,,,0.00,0,Wunderground v.1.15,2013-07-28 07:12:00,
2013-07-28 03:17:00,59.4,58.3,29.96,WNW,300,0.0,0.0,96,0.00,,,0.00,0,Wunderground v.1.15,2013-07-28 07:17:00,
2013-07-28 03:22:00,59.3,58.2,29.96,WNW,300,0.0,0.0,96,0.00,,,0.00,0,Wunderground v.1.15,2013-07-28 07:22:00,
2013-07-28 03:27:00,59.2,58.1,29.96,WNW,300,0.0,0.0,96,0.00,,,0.00,0,Wunderground v.1.15,2013-07-28 07:27:00,
2013-07-28 03:32:00,59.2,58.1,29.96,WNW,300,0.0,0.0,96,0.00,,,0.00,0,Wunderground v.1.15,2013-07-28 07:32:00,
2013-07-28 03:37:00,59.1,58.0,29.96,WNW,300,0.0,0.0,96,0.00,,,0.00,0,Wunderground v.1.15,2013-07-28 07:37:00,
2013-07-28 03:47:00,58.9,57.8,29.96,WNW,300,0.0,0.0,96,0.00,,,0.00,0,Wunderground v.1.15,2013-07-28 07:47:00,
2013-07-28 03:52:00,58.9,58.1,29.96,WNW,300,0.0,0.0,97,0.00,,,0.00,0,Wunderground v.1.15,2013-07-28 07:52:00,
2013-07-28 04:02:00,58.8,58.0,29.96,WNW,300,0.0,0.0,97,0.00,,,0.00,0,Wunderground v.1.15,2013-07-28 08:02:00,
2013-07-28 04:07:00,58.6,57.8,29.96,WNW,300,0.0,0.0,97,0.00,,,0.00,0,Wunderground v.1.15,2013-07-28 08:07:00,
2013-07-28 04:12:00,58.6,57.8,29.97,WNW,300,0.0,0.0,97,0.00,,,0.00,0,Wunderground v.1.15,2013-07-28 08:12:00,
2013-07-28 04:17:00,58.7,57.9,29.96,WNW,300,0.0,0.0,97,0.00,,,0.00,0,Wunderground v.1.15,2013-07-28 08:17:00,
2013-07-28 04:22:00,58.6,57.8,29.96,WNW,300,0.0,0.0,97,0.00,,,0.00,0,Wunderground v.1.15,2013-07-28 08:22:00,
2013-07-28 04:32:00,58.5,57.7,29.96,WNW,300,0.0,0.0,97,0.00,,,0.00,0,Wunderground v.1.15,2013-07-28 08:32:00,
2013-07-28 04:37:00,58.6,57.8,29.96,WNW,300,0.0,0.0,97,0.00,,,0.00,0,Wunderground v.1.15,2013-07-28 08:37:00,
2013-07-28 04:42:00,58.6,57.8,29.96,WNW,300,0.0,0.0,97,0.00,,,0.00,0,Wunderground v.1.15,2013-07-28 08:42:00,
2013-07-28 04:47:00,58.6,57.8,29.96,WNW,300,0.0,0.0,97,0.00,,,0.00,0,Wunderground v.1.15,2013-07-28 08:47:00,
2013-07-28 04:52:00,58.6,57.8,29.96,WNW,300,0.0,0.0,97,0.00,,,0.00,0,Wunderground v.1.15,2013-07-28 08:52:00,
2013-07-28 04:57:00,58.6,57.8,29.96,WNW,300,0.0,0.0,97,0.00,,,0.00,0,Wunderground v.1.15,2013-07-28 08:57:00,
2013-07-28 05:02:00,58.8,58.0,29.95,WNW,300,0.0,0.0,97,0.00,,,0.00,0,Wunderground v.1.15,2013-07-28 09:02:00,
2013-07-28 05:12:00,58.9,58.3,29.96,SSE,167,0.0,0.0,98,0.00,,,0.00,0,Wunderground v.1.15,2013-07-28 09:12:00,
2013-07-28 05:17:00,59.0,58.4,29.96,SSE,167,0.0,0.0,98,0.00,,,0.00,0,Wunderground v.1.15,2013-07-28 09:17:00,
2013-07-28 05:22:00,59.1,58.5,29.96,SSE,167,0.0,0.0,98,0.00,,,0.00,0,Wunderground v.1.15,2013-07-28 09:22:00,
2013-07-28 05:27:00,59.1,58.5,29.96,SE,144,0.0,1.0,98,0.00,,,0.00,0,Wunderground v.1.15,2013-07-28 09:27:00,
2013-07-28 05:32:00,59.1,58.5,29.96,SE,144,0.0,1.0,98,0.00,,,0.00,5,Wunderground v.1.15,2013-07-28 09:32:00,
2013-07-28 05:37:00,59.1,58.5,29.97,SE,144,0.0,0.0,98,0.00,,,0.00,5,Wunderground v.1.15,2013-07-28 09:37:00,
2013-07-28 05:42:00,59.1,58.2,29.96,SE,144,0.0,0.0,97,0.00,,,0.00,7,Wunderground v.1.15,2013-07-28 09:42:00,
2013-07-28 05:47:00,59.3,58.4,29.96,SE,144,0.0,0.0,97,0.00,,,0.00,11,Wunderground v.1.15,2013-07-28 09:47:00,
2013-07-28 05:52:00,59.2,58.3,29.97,SE,144,0.0,0.0,97,0.00,,,0.00,14,Wunderground v.1.15,2013-07-28 09:52:00,
2013-07-28 05:57:00,59.2,58.3,29.97,SE,146,0.0,0.0,97,0.00,,,0.00,14,Wunderground v.1.15,2013-07-28 09:57:00,
2013-07-28 06:02:00,59.2,58.3,29.97,SE,146,0.0,0.0,97,0.00,,,0.00,21,Wunderground v.1.15,2013-07-28 10:02:00,
2013-07-28 06:07:00,59.3,58.4,29.97,SE,146,0.0,0.0,97,0.00,,,0.00,26,Wunderground v.1.15,2013-07-28 10:07:00,
2013-07-28 06:12:00,59.3,58.4,29.97,SE,146,0.0,0.0,97,0.00,,,0.00,35,Wunderground v.1.15,2013-07-28 10:12:00,
2013-07-28 06:22:00,59.6,59.0,29.97,SE,146,0.0,0.0,98,0.00,,,0.00,32,Wunderground v.1.15,2013-07-28 10:22:00,
2013-07-28 06:27:00,59.6,59.0,29.97,SW,236,0.0,0.0,98,0.00,,,0.00,33,Wunderground v.1.15,2013-07-28 10:27:00,
2013-07-28 06:32:00,59.7,59.1,29.97,SW,236,0.0,0.0,98,0.00,,,0.00,53,Wunderground v.1.15,2013-07-28 10:32:00,
2013-07-28 06:37:00,59.7,59.1,29.97,SW,236,0.0,0.0,98,0.00,,,0.00,60,Wunderground v.1.15,2013-07-28 10:37:00,
2013-07-28 06:42:00,59.9,59.3,29.97,SW,236,0.0,0.0,98,0.00,,,0.00,51,Wunderground v.1.15,2013-07-28 10:42:00,
2013-07-28 06:47:00,60.1,59.5,29.97,SW,236,0.0,0.0,98,0.00,,,0.00,58,Wunderground v.1.15,2013-07-28 10:47:00,
2013-07-28 06:52:00,60.3,59.7,29.97,WSW,246,0.0,2.0,98,0.00,,,0.00,40,Wunderground v.1.15,2013-07-28 10:52:00,
2013-07-28 06:57:00,60.4,59.8,29.97,WNW,296,1.0,1.0,98,0.00,,,0.00,51,Wunderground v.1.15,2013-07-28 10:57:00,
2013-07-28 07:02:00,60.5,59.9,29.97,WNW,296,1.0,1.0,98,0.00,,,0.00,58,Wunderground v.1.15,2013-07-28 11:02:00,
2013-07-28 07:07:00,60.6,60.0,29.97,WNW,296,0.0,0.0,98,0.00,,,0.00,49,Wunderground v.1.15,2013-07-28 11:07:00,
2013-07-28 07:12:00,60.7,60.1,29.97,WNW,296,0.0,1.0,98,0.00,,,0.00,53,Wunderground v.1.15,2013-07-28 11:12:00,
2013-07-28 07:17:00,60.7,60.1,29.97,WNW,301,0.0,0.0,98,0.00,,,0.00,81,Wunderground v.1.15,2013-07-28 11:17:00,
2013-07-28 07:27:00,61.0,60.4,29.97,WNW,285,1.0,1.0,98,0.00,,,0.00,107,Wunderground v.1.15,2013-07-28 11:27:00,
2013-07-28 07:32:00,61.2,60.6,29.97,WNW,285,0.0,1.0,98,0.00,,,0.00,125,Wunderground v.1.15,2013-07-28 11:32:00,
2013-07-28 07:37:00,61.4,60.8,29.97,WNW,285,0.0,0.0,98,0.00,,,0.00,214,Wunderground v.1.15,2013-07-28 11:37:00,
2013-07-28 07:42:00,61.6,61.0,29.97,WNW,285,0.0,0.0,98,0.00,,,0.00,134,Wunderground v.1.15,2013-07-28 11:42:00,
2013-07-28 07:47:00,61.8,61.2,29.97,ENE,68,0.0,0.0,98,0.00,,,0.00,134,Wunderground v.1.15,2013-07-28 11:47:00,
2013-07-28 07:52:00,62.1,61.5,29.97,ENE,69,0.0,0.0,98,0.00,,,0.00,144,Wunderground v.1.15,2013-07-28 11:52:00,
2013-07-28 07:57:00,62.2,61.6,29.98,ENE,69,0.0,0.0,98,0.00,,,0.00,120,Wunderground v.1.15,2013-07-28 11:57:00,
2013-07-28 08:02:00,62.5,61.9,29.97,NW,321,0.0,0.0,98,0.00,,,0.00,135,Wunderground v.1.15,2013-07-28 12:02:00,
2013-07-28 08:07:00,62.7,61.8,29.98,NW,321,0.0,0.0,97,0.00,,,0.00,172,Wunderground v.1.15,2013-07-28 12:07:00,
2013-07-28 08:12:00,63.0,61.8,29.98,NW,321,0.0,0.0,96,0.00,,,0.00,169,Wunderground v.1.15,2013-07-28 12:12:00,
2013-07-28 08:17:00,63.1,61.9,29.98,NW,321,0.0,0.0,96,0.00,,,0.00,169,Wunderground v.1.15,2013-07-28 12:17:00,
2013-07-28 08:22:00,63.4,62.2,29.98,NW,316,0.0,0.0,96,0.00,,,0.00,146,Wunderground v.1.15,2013-07-28 12:22:00,
2013-07-28 08:27:00,63.6,62.4,29.98,NW,316,0.0,0.0,96,0.00,,,0.00,128,Wunderground v.1.15,2013-07-28 12:27:00,
2013-07-28 08:32:00,63.8,62.6,29.98,ENE,73,0.0,1.0,96,0.00,,,0.00,127,Wunderground v.1.15,2013-07-28 12:32:00,
2013-07-28 08:37:00,64.0,62.5,29.98,SE,127,0.0,0.0,95,0.00,,,0.00,141,Wunderground v.1.15,2013-07-28 12:37:00,
2013-07-28 08:42:00,64.1,62.6,29.98,SE,127,0.0,0.0,95,0.00,,,0.00,144,Wunderground v.1.15,2013-07-28 12:42:00,
2013-07-28 08:52:00,64.4,62.6,29.98,SE,128,0.0,1.0,94,0.00,,,0.00,176,Wunderground v.1.15,2013-07-28 12:52:00,
2013-07-28 08:57:00,64.7,62.9,29.98,SE,128,0.0,0.0,94,0.00,,,0.00,237,Wunderground v.1.15,2013-07-28 12:57:00,
2013-07-28 09:02:00,65.0,62.9,29.98,SE,128,0.0,0.0,93,0.00,,,0.00,450,Wunderground v.1.15,2013-07-28 13:02:00,
2013-07-28 09:07:00,65.6,63.2,29.98,SE,128,0.0,0.0,92,0.00,,,0.00,520,Wunderground v.1.15,2013-07-28 13:07:00,
2013-07-28 09:12:00,66.3,63.6,29.98,ESE,119,0.0,0.0,91,0.00,,,0.00,772,Wunderground v.1.15,2013-07-28 13:12:00,
2013-07-28 09:17:00,67.1,64.1,29.97,NW,322,0.0,0.0,90,0.00,,,0.00,675,Wunderground v.1.15,2013-07-28 13:17:00,
2013-07-28 09:22:00,68.0,64.0,29.97,NNW,343,0.0,0.0,87,0.00,,,0.00,603,Wunderground v.1.15,2013-07-28 13:22:00,
2013-07-28 09:27:00,69.2,64.8,29.97,East,83,1.0,1.0,86,0.00,,,0.00,708,Wunderground v.1.15,2013-07-28 13:27:00,
2013-07-28 09:32:00,70.3,65.2,29.97,NW,323,1.0,2.0,84,0.00,,,0.00,816,Wunderground v.1.15,2013-07-28 13:32:00,
2013-07-28 09:37:00,71.1,65.0,29.97,SE,134,1.0,2.0,81,0.00,,,0.00,722,Wunderground v.1.15,2013-07-28 13:37:00,
2013-07-28 09:42:00,71.9,65.0,29.97,ENE,61,1.0,2.0,79,0.00,,,0.00,571,Wunderground v.1.15,2013-07-28 13:42:00,
2013-07-28 09:47:00,72.1,64.9,29.97,ENE,69,1.0,1.0,78,0.00,,,0.00,410,Wunderground v.1.15,2013-07-28 13:47:00,
2013-07-28 09:52:00,72.2,65.3,29.97,SE,140,1.0,2.0,79,0.00,,,0.00,288,Wunderground v.1.15,2013-07-28 13:52:00,
2013-07-28 09:57:00,72.2,65.0,29.97,ESE,109,1.0,2.0,78,0.00,,,0.00,292,Wunderground v.1.15,2013-07-28 13:57:00,
2013-07-28 10:02:00,72.2,65.0,29.97,SE,132,2.0,2.0,78,0.00,,,0.00,406,Wunderground v.1.15,2013-07-28 14:02:00,
2013-07-28 10:12:00,72.3,63.5,29.97,ENE,69,2.0,2.0,74,0.00,,,0.00,332,Wunderground v.1.15,2013-07-28 14:12:00,
2013-07-28 10:17:00,72.2,63.8,29.97,SE,144,2.0,3.0,75,0.00,,,0.00,360,Wunderground v.1.15,2013-07-28 14:17:00,
2013-07-28 10:22:00,72.4,63.3,29.97,SSE,159,2.0,3.0,73,0.00,,,0.00,390,Wunderground v.1.15,2013-07-28 14:22:00,
2013-07-28 10:27:00,73.1,63.5,29.97,ESE,103,2.0,2.0,72,0.00,,,0.00,698,Wunderground v.1.15,2013-07-28 14:27:00,
2013-07-28 10:32:00,73.4,62.6,29.97,SE,136,1.0,2.0,69,0.00,,,0.00,369,Wunderground v.1.15,2013-07-28 14:32:00,
2013-07-28 10:37:00,73.8,63.0,29.97,SE,138,1.0,2.0,69,0.00,,,0.00,441,Wunderground v.1.15,2013-07-28 14:37:00,
2013-07-28 10:42:00,74.0,62.8,29.96,ESE,107,1.0,2.0,68,0.00,,,0.00,420,Wunderground v.1.15,2013-07-28 14:42:00,
2013-07-28 10:47:00,74.2,63.4,29.96,NE,35,1.0,1.0,69,0.00,,,0.00,826,Wunderground v.1.15,2013-07-28 14:47:00,
2013-07-28 10:52:00,74.5,63.7,29.96,ESE,114,2.0,2.0,69,0.00,,,0.00,865,Wunderground v.1.15,2013-07-28 14:52:00,
2013-07-28 10:57:00,74.7,63.9,29.96,ESE,113,2.0,2.0,69,0.00,,,0.00,624,Wunderground v.1.15,2013-07-28 14:57:00,
2013-07-28 11:02:00,75.4,64.1,29.96,ENE,76,1.0,2.0,68,0.00,,,0.00,895,Wunderground v.1.15,2013-07-28 15:02:00,
2013-07-28 11:12:00,75.9,64.6,29.96,SE,132,2.0,2.0,68,0.00,,,0.00,675,Wunderground v.1.15,2013-07-28 15:12:00,
2013-07-28 11:17:00,76.4,65.5,29.95,East,98,2.0,3.0,69,0.00,,,0.00,715,Wunderground v.1.15,2013-07-28 15:17:00,
2013-07-28 11:22:00,76.6,64.8,29.95,ESE,115,2.0,6.0,67,0.00,,,0.00,744,Wunderground v.1.15,2013-07-28 15:22:00,
2013-07-28 11:27:00,76.2,64.9,29.95,East,100,3.0,3.0,68,0.00,,,0.00,756,Wunderground v.1.15,2013-07-28 15:27:00,
2013-07-28 11:32:00,76.4,64.6,29.94,ENE,78,3.0,4.0,67,0.00,,,0.00,577,Wunderground v.1.15,2013-07-28 15:32:00,
2013-07-28 11:37:00,76.5,64.7,29.94,East,91,2.0,6.0,67,0.00,,,0.00,656,Wunderground v.1.15,2013-07-28 15:37:00,
2013-07-28 11:42:00,76.7,64.0,29.94,NW,314,2.0,6.0,65,0.00,,,0.00,385,Wunderground v.1.15,2013-07-28 15:42:00,
2013-07-28 11:47:00,76.7,64.9,29.94,ENE,63,2.0,3.0,67,0.00,,,0.00,508,Wunderground v.1.15,2013-07-28 15:47:00,
2013-07-28 11:52:00,76.9,64.7,29.94,ESE,119,2.0,3.0,66,0.00,,,0.00,921,Wunderground v.1.15,2013-07-28 15:52:00,
2013-07-28 11:57:00,77.6,65.3,29.94,East,85,2.0,2.0,66,0.00,,,0.00,942,Wunderground v.1.15,2013-07-28 15:57:00,
2013-07-28 12:02:00,78.0,64.8,29.94,SE,125,3.0,5.0,64,0.00,,,0.00,1058,Wunderground v.1.15,2013-07-28 16:02:00,
2013-07-28 12:07:00,78.6,64.9,29.93,SE,130,4.0,4.0,63,0.00,,,0.00,881,Wunderground v.1.15,2013-07-28 16:07:00,
2013-07-28 12:12:00,79.4,66.2,29.93,NE,55,3.0,4.0,64,0.00,,,0.00,998,Wunderground v.1.15,2013-07-28 16:12:00,
2013-07-28 12:17:00,79.9,66.2,29.93,ESE,117,2.0,7.0,63,0.00,,,0.00,717,Wunderground v.1.15,2013-07-28 16:17:00,
2013-07-28 12:22:00,79.8,65.6,29.93,SSE,151,3.0,7.0,62,0.00,,,0.00,714,Wunderground v.1.15,2013-07-28 16:22:00,
2013-07-28 12:27:00,80.0,66.3,29.93,SE,126,3.0,3.0,63,0.00,,,0.00,663,Wunderground v.1.15,2013-07-28 16:27:00,
2013-07-28 12:32:00,80.0,66.3,29.93,East,98,2.0,3.0,63,0.00,,,0.00,387,Wunderground v.1.15,2013-07-28 16:32:00,
2013-07-28 12:37:00,79.7,66.0,29.93,ESE,123,2.0,3.0,63,0.00,,,0.00,369,Wunderground v.1.15,2013-07-28 16:37:00,
2013-07-28 12:42:00,79.6,66.8,29.93,SE,144,3.0,5.0,65,0.00,,,0.00,810,Wunderground v.1.15,2013-07-28 16:42:00,
2013-07-28 12:52:00,80.2,66.5,29.93,East,101,4.0,8.0,63,0.00,,,0.00,935,Wunderground v.1.15,2013-07-28 16:52:00,
2013-07-28 12:57:00,79.9,65.7,29.93,East,100,5.0,5.0,62,0.00,,,0.00,469,Wunderground v.1.15,2013-07-28 16:57:00,
2013-07-28 13:02:00,79.8,66.5,29.93,ESE,114,4.0,5.0,64,0.00,,,0.00,944,Wunderground v.1.15,2013-07-28 17:02:00,
2013-07-28 13:07:00,80.0,66.7,29.93,SE,138,4.0,7.0,64,0.00,,,0.00,642,Wunderground v.1.15,2013-07-28 17:07:00,
2013-07-28 13:12:00,80.2,66.9,29.93,SSW,197,5.0,7.0,64,0.00,,,0.00,417,Wunderground v.1.15,2013-07-28 17:12:00,
2013-07-28 13:17:00,80.1,66.8,29.93,East,84,5.0,5.0,64,0.00,,,0.00,383,Wunderground v.1.15,2013-07-28 17:17:00,
2013-07-28 13:22:00,80.5,66.3,29.93,ESE,117,4.0,6.0,62,0.00,,,0.00,383,Wunderground v.1.15,2013-07-28 17:22:00,
2013-07-28 13:27:00,80.6,66.8,29.93,SE,142,3.0,3.0,63,0.00,,,0.00,345,Wunderground v.1.15,2013-07-28 17:27:00,
2013-07-28 13:32:00,80.6,66.4,29.93,South,170,2.0,3.0,62,0.00,,,0.00,719,Wunderground v.1.15,2013-07-28 17:32:00,
2013-07-28 13:37:00,80.6,66.4,29.93,ESE,105,3.0,4.0,62,0.00,,,0.00,369,Wunderground v.1.15,2013-07-28 17:37:00,
2013-07-28 13:42:00,80.7,66.9,29.93,SSE,157,4.0,4.0,63,0.00,,,0.00,399,Wunderground v.1.15,2013-07-28 17:42:00,
2013-07-28 13:47:00,81.3,67.5,29.92,East,83,4.0,5.0,63,0.00,,,0.00,1016,Wunderground v.1.15,2013-07-28 17:47:00,
2013-07-28 13:52:00,81.2,67.4,29.92,ENE,69,4.0,5.0,63,0.00,,,0.00,1079,Wunderground v.1.15,2013-07-28 17:52:00,
2013-07-28 13:57:00,80.6,66.4,29.93,ESE,121,5.0,5.0,62,0.00,,,0.00,338,Wunderground v.1.15,2013-07-28 17:57:00,
2013-07-28 14:02:00,80.7,65.5,29.93,ESE,107,4.0,5.0,60,0.00,,,0.00,408,Wunderground v.1.15,2013-07-28 18:02:00,
2013-07-28 14:07:00,80.9,66.2,29.93,SE,141,4.0,5.0,61,0.00,,,0.00,371,Wunderground v.1.15,2013-07-28 18:07:00,
2013-07-28 14:12:00,81.1,66.8,29.94,ESE,109,4.0,5.0,62,0.00,,,0.00,506,Wunderground v.1.15,2013-07-28 18:12:00,
2013-07-28 14:17:00,81.3,65.6,29.93,SSE,148,3.0,3.0,59,0.00,,,0.00,643,Wunderground v.1.15,2013-07-28 18:17:00,
2013-07-28 14:27:00,81.8,66.1,29.93,East,94,4.0,4.0,59,0.00,,,0.00,517,Wunderground v.1.15,2013-07-28 18:27:00,
2013-07-28 14:32:00,81.6,66.8,29.93,SSE,162,4.0,8.0,61,0.00,,,0.00,940,Wunderground v.1.15,2013-07-28 18:32:00,
2013-07-28 14:37:00,82.1,66.8,29.93,ESE,119,3.0,4.0,60,0.00,,,0.00,601,Wunderground v.1.15,2013-07-28 18:37:00,
2013-07-28 14:42:00,81.9,66.6,29.93,SE,140,4.0,7.0,60,0.00,,,0.00,401,Wunderground v.1.15,2013-07-28 18:42:00,
2013-07-28 14:47:00,81.4,66.7,29.93,SE,124,4.0,5.0,61,0.00,,,0.00,385,Wunderground v.1.15,2013-07-28 18:47:00,
2013-07-28 14:52:00,81.3,66.1,29.93,ESE,114,4.0,6.0,60,0.00,,,0.00,399,Wunderground v.1.15,2013-07-28 18:52:00,
2013-07-28 14:57:00,81.3,67.0,29.93,ESE,118,3.0,4.0,62,0.00,,,0.00,520,Wunderground v.1.15,2013-07-28 18:57:00,
2013-07-28 15:02:00,81.7,66.0,29.93,SE,132,3.0,4.0,59,0.00,,,0.00,645,Wunderground v.1.15,2013-07-28 19:02:00,
2013-07-28 15:12:00,82.7,66.4,29.93,SW,220,2.0,3.0,58,0.00,,,0.00,824,Wunderground v.1.15,2013-07-28 19:12:00,
2013-07-28 15:22:00,82.6,66.3,29.93,South,190,3.0,3.0,58,0.00,,,0.00,475,Wunderground v.1.15,2013-07-28 19:22:00,
2013-07-28 15:27:00,82.1,66.4,29.93,East,93,4.0,4.0,59,0.00,,,0.00,373,Wunderground v.1.15,2013-07-28 19:27:00,
2013-07-28 15:32:00,82.0,67.7,29.93,ENE,67,3.0,4.0,62,0.00,,,0.00,341,Wunderground v.1.15,2013-07-28 19:32:00,
2013-07-28 15:37:00,82.0,69.1,29.93,ESE,116,2.0,7.0,65,0.00,,,0.00,213,Wunderground v.1.15,2013-07-28 19:37:00,
2013-07-28 15:42:00,81.5,68.6,29.93,SE,134,2.0,7.0,65,0.00,,,0.00,241,Wunderground v.1.15,2013-07-28 19:42:00,
2013-07-28 15:47:00,80.9,69.3,29.93,SE,124,3.0,5.0,68,0.00,,,0.00,320,Wunderground v.1.15,2013-07-28 19:47:00,
2013-07-28 15:52:00,80.7,69.2,29.93,ESE,122,4.0,5.0,68,0.00,,,0.00,443,Wunderground v.1.15,2013-07-28 19:52:00,
2013-07-28 15:57:00,80.5,69.4,29.93,ESE,103,4.0,9.0,69,0.00,,,0.00,229,Wunderground v.1.15,2013-07-28 19:57:00,
2013-07-28 16:02:00,79.7,69.0,29.93,ESE,122,5.0,9.0,70,0.00,,,0.00,269,Wunderground v.1.15,2013-07-28 20:02:00,
2013-07-28 16:07:00,79.4,69.6,29.92,ESE,109,5.0,5.0,72,0.00,,,0.00,483,Wunderground v.1.15,2013-07-28 20:07:00,
2013-07-28 16:12:00,79.6,69.8,29.92,SSE,150,4.0,5.0,72,0.00,,,0.00,408,Wunderground v.1.15,2013-07-28 20:12:00,
2013-07-28 16:22:00,78.3,69.7,29.92,ESE,121,5.0,5.0,75,0.00,,,0.00,295,Wunderground v.1.15,2013-07-28 20:22:00,
2013-07-28 16:27:00,78.0,69.4,29.92,ESE,121,5.0,5.0,75,0.00,,,0.00,248,Wunderground v.1.15,2013-07-28 20:27:00,
2013-07-28 16:32:00,77.6,69.0,29.92,SE,144,5.0,5.0,75,0.00,,,0.00,204,Wunderground v.1.15,2013-07-28 20:32:00,
2013-07-28 16:37:00,76.8,69.0,29.92,ESE,103,6.0,6.0,77,0.00,,,0.00,221,Wunderground v.1.15,2013-07-28 20:37:00,
2013-07-28 16:42:00,76.5,69.1,29.93,SE,144,6.0,6.0,78,0.00,,,0.00,227,Wunderground v.1.15,2013-07-28 20:42:00,
2013-07-28 16:47:00,76.1,68.7,29.93,ESE,107,6.0,7.0,78,0.00,,,0.00,274,Wunderground v.1.15,2013-07-28 20:47:00,
2013-07-28 16:52:00,76.3,69.3,29.93,ESE,105,5.0,7.0,79,0.00,,,0.00,274,Wunderground v.1.15,2013-07-28 20:52:00,
2013-07-28 16:57:00,76.2,69.2,29.93,ESE,122,4.0,4.0,79,0.00,,,0.00,223,Wunderground v.1.15,2013-07-28 20:57:00,
2013-07-28 17:02:00,75.9,68.9,29.93,SE,144,5.0,8.0,79,0.00,,,0.00,188,Wunderground v.1.15,2013-07-28 21:02:00,
2013-07-28 17:12:00,75.2,68.6,29.93,ESE,111,6.0,8.0,80,0.00,,,0.00,188,Wunderground v.1.15,2013-07-28 21:12:00,
2013-07-28 17:17:00,74.8,68.6,29.93,ESE,120,6.0,6.0,81,0.00,,,0.00,199,Wunderground v.1.15,2013-07-28 21:17:00,
2013-07-28 17:22:00,74.6,68.4,29.94,SSE,148,6.0,10.0,81,0.00,,,0.00,190,Wunderground v.1.15,2013-07-28 21:22:00,
2013-07-28 17:27:00,74.4,68.2,29.93,East,101,6.0,10.0,81,0.00,,,0.00,125,Wunderground v.1.15,2013-07-28 21:27:00,
2013-07-28 17:32:00,73.9,68.1,29.93,East,96,7.0,10.0,82,0.00,,,0.00,93,Wunderground v.1.15,2013-07-28 21:32:00,
2013-07-28 17:37:00,73.5,67.7,29.93,NNE,29,7.0,9.0,82,0.00,,,0.00,81,Wunderground v.1.15,2013-07-28 21:37:00,
2013-07-28 17:42:00,73.4,67.9,29.93,East,96,5.0,9.0,83,0.00,,,0.00,107,Wunderground v.1.15,2013-07-28 21:42:00,
2013-07-28 17:52:00,72.9,67.4,29.93,ESE,104,5.0,5.0,83,0.00,,,0.00,77,Wunderground v.1.15,2013-07-28 21:52:00,
2013-07-28 18:02:00,72.6,67.5,29.93,East,96,5.0,9.0,84,0.00,,,0.00,42,Wunderground v.1.15,2013-07-28 22:02:00,
2013-07-28 18:07:00,72.4,67.3,29.93,East,88,6.0,8.0,84,0.00,,,0.00,35,Wunderground v.1.15,2013-07-28 22:07:00,
2013-07-28 18:12:00,72.3,67.5,29.93,ESE,114,6.0,8.0,85,0.00,,,0.00,26,Wunderground v.1.15,2013-07-28 22:12:00,
2013-07-28 18:17:00,72.3,67.5,29.94,ESE,123,5.0,5.0,85,0.00,,,0.00,28,Wunderground v.1.15,2013-07-28 22:17:00,
2013-07-28 18:22:00,72.2,67.4,29.94,ESE,116,3.0,5.0,85,0.00,,,0.00,26,Wunderground v.1.15,2013-07-28 22:22:00,
2013-07-28 18:27:00,72.0,67.2,29.94,East,86,3.0,3.0,85,0.00,,,0.00,25,Wunderground v.1.15,2013-07-28 22:27:00,
2013-07-28 18:37:00,71.8,67.4,29.95,ENE,73,3.0,3.0,86,0.00,,,0.00,18,Wunderground v.1.15,2013-07-28 22:37:00,
2013-07-28 18:42:00,71.8,67.4,29.95,SE,133,3.0,3.0,86,0.00,,,0.00,18,Wunderground v.1.15,2013-07-28 22:42:00,
2013-07-28 18:47:00,71.7,67.3,29.95,East,96,3.0,7.0,86,0.00,,,0.00,16,Wunderground v.1.15,2013-07-28 22:47:00,
2013-07-28 18:52:00,71.5,67.1,29.95,ESE,123,4.0,7.0,86,0.00,,,0.00,16,Wunderground v.1.15,2013-07-28 22:52:00,
2013-07-28 18:57:00,71.3,67.2,29.95,East,101,5.0,5.0,87,0.00,,,0.00,14,Wunderground v.1.15,2013-07-28 22:57:00,
2013-07-28 19:02:00,71.0,67.3,29.95,East,100,4.0,5.0,88,0.00,,,0.00,12,Wunderground v.1.15,2013-07-28 23:02:00,
2013-07-28 19:07:00,70.8,67.4,29.95,SSE,149,4.0,4.0,89,0.00,,,0.00,9,Wunderground v.1.15,2013-07-28 23:07:00,
2013-07-28 19:12:00,70.6,67.5,29.96,East,91,2.0,4.0,90,0.00,,,0.00,9,Wunderground v.1.15,2013-07-28 23:12:00,
2013-07-28 19:17:00,70.5,67.4,29.96,East,86,2.0,2.0,90,0.00,,,0.00,9,Wunderground v.1.15,2013-07-28 23:17:00,
2013-07-28 19:22:00,70.4,67.6,29.96,SE,138,1.0,2.0,91,0.00,,,0.01,7,Wunderground v.1.15,2013-07-28 23:22:00,
2013-07-28 19:27:00,70.2,67.4,29.96,East,91,1.0,2.0,91,0.00,,,0.01,7,Wunderground v.1.15,2013-07-28 23:27:00,
2013-07-28 19:32:00,70.0,67.6,29.96,East,90,1.0,2.0,92,0.05,,,0.01,5,Wunderground v.1.15,2013-07-28 23:32:00,
2013-07-28 19:37:00,69.9,67.8,29.96,East,79,1.0,1.0,93,0.17,,,0.03,7,Wunderground v.1.15,2013-07-28 23:37:00,
2013-07-28 19:42:00,69.7,67.6,29.96,ESE,108,1.0,1.0,93,0.09,,,0.03,5,Wunderground v.1.15,2013-07-28 23:42:00,
2013-07-28 19:47:00,69.6,67.5,29.96,East,82,2.0,2.0,93,0.08,,,0.04,0,Wunderground v.1.15,2013-07-28 23:47:00,
2013-07-28 19:52:00,69.5,67.7,29.96,East,92,2.0,2.0,94,0.07,,,0.04,0,Wunderground v.1.15,2013-07-28 23:52:00,
2013-07-28 19:57:00,69.4,67.6,29.96,ENE,73,2.0,2.0,94,0.04,,,0.04,0,Wunderground v.1.15,2013-07-28 23:57:00,
2013-07-28 20:02:00,69.3,67.5,29.96,ESE,103,2.0,2.0,94,0.00,,,0.05,0,Wunderground v.1.15,2013-07-29 00:02:00,
2013-07-28 20:07:00,69.2,67.4,29.96,East,88,2.0,2.0,94,0.00,,,0.05,0,Wunderground v.1.15,2013-07-29 00:07:00,
2013-07-28 20:12:00,69.2,67.4,29.96,ESE,113,2.0,2.0,94,0.00,,,0.05,0,Wunderground v.1.15,2013-07-29 00:12:00,
2013-07-28 20:17:00,69.1,67.3,29.96,ESE,104,1.0,1.0,94,0.00,,,0.05,0,Wunderground v.1.15,2013-07-29 00:17:00,
2013-07-28 20:22:00,69.0,67.5,29.97,ENE,69,2.0,2.0,95,0.00,,,0.05,0,Wunderground v.1.15,2013-07-29 00:22:00,
2013-07-28 20:27:00,68.9,67.4,29.97,ESE,121,2.0,2.0,95,0.00,,,0.06,0,Wunderground v.1.15,2013-07-29 00:27:00,
2013-07-28 20:32:00,68.8,67.0,29.97,ENE,71,2.0,2.0,94,0.00,,,0.06,0,Wunderground v.1.15,2013-07-29 00:32:00,
2013-07-28 20:37:00,68.7,67.2,29.97,ENE,78,2.0,2.0,95,0.00,,,0.06,0,Wunderground v.1.15,2013-07-29 00:37:00,
2013-07-28 20:42:00,68.6,66.8,29.97,SE,124,2.0,2.0,94,0.05,,,0.07,0,Wunderground v.1.15,2013-07-29 00:42:00,
2013-07-28 20:47:00,68.6,66.8,29.97,ESE,103,1.0,1.0,94,0.05,,,0.07,0,Wunderground v.1.15,2013-07-29 00:47:00,
2013-07-28 20:52:00,68.4,66.6,29.97,ENE,78,2.0,2.0,94,0.05,,,0.07,0,Wunderground v.1.15,2013-07-29 00:52:00,
2013-07-28 20:57:00,68.2,66.7,29.97,East,88,2.0,2.0,95,0.00,,,0.07,0,Wunderground v.1.15,2013-07-29 00:57:00,
2013-07-28 21:02:00,68.1,66.6,29.97,ENE,75,2.0,2.0,95,0.00,,,0.08,0,Wunderground v.1.15,2013-07-29 01:02:00,
2013-07-28 21:07:00,68.0,66.5,29.97,SE,136,2.0,2.0,95,0.00,,,0.08,0,Wunderground v.1.15,2013-07-29 01:07:00,
2013-07-28 21:12:00,67.8,66.0,29.97,SE,125,3.0,3.0,94,0.00,,,0.08,0,Wunderground v.1.15,2013-07-29 01:12:00,
2013-07-28 21:22:00,67.6,66.1,29.97,SE,128,3.0,4.0,95,0.00,,,0.08,0,Wunderground v.1.15,2013-07-29 01:22:00,
2013-07-28 21:32:00,67.5,66.0,29.97,ESE,115,2.0,5.0,95,0.00,,,0.08,0,Wunderground v.1.15,2013-07-29 01:32:00,
2013-07-28 21:37:00,67.4,65.9,29.97,ESE,117,2.0,2.0,95,0.00,,,0.08,0,Wunderground v.1.15,2013-07-29 01:37:00,
2013-07-28 21:42:00,67.3,65.8,29.97,ESE,103,2.0,2.0,95,0.00,,,0.08,0,Wunderground v.1.15,2013-07-29 01:42:00,
2013-07-28 21:47:00,67.2,65.7,29.97,ENE,74,2.0,3.0,95,0.00,,,0.08,0,Wunderground v.1.15,2013-07-29 01:47:00,
2013-07-28 21:52:00,67.1,65.6,29.97,ESE,103,2.0,3.0,95,0.00,,,0.08,0,Wunderground v.1.15,2013-07-29 01:52:00,
2013-07-28 21:57:00,67.1,65.6,29.97,East,82,2.0,2.0,95,0.00,,,0.08,0,Wunderground v.1.15,2013-07-29 01:57:00,
2013-07-28 22:02:00,67.1,65.6,29.97,East,98,1.0,6.0,95,0.00,,,0.08,0,Wunderground v.1.15,2013-07-29 02:02:00,
2013-07-28 22:12:00,67.0,65.5,29.97,ESE,107,1.0,3.0,95,0.00,,,0.08,0,Wunderground v.1.15,2013-07-29 02:12:00,
2013-07-28 22:22:00,66.9,65.4,29.97,East,101,2.0,2.0,95,0.00,,,0.08,0,Wunderground v.1.15,2013-07-29 02:22:00,
2013-07-28 22:27:00,66.9,65.4,29.96,SSE,163,2.0,2.0,95,0.00,,,0.08,0,Wunderground v.1.15,2013-07-29 02:27:00,
2013-07-28 22:32:00,66.8,65.3,29.97,SE,132,1.0,2.0,95,0.00,,,0.08,0,Wunderground v.1.15,2013-07-29 02:32:00,
2013-07-28 22:37:00,66.8,65.3,29.97,ENE,76,2.0,2.0,95,0.00,,,0.08,0,Wunderground v.1.15,2013-07-29 02:37:00,
2013-07-28 22:42:00,66.7,65.2,29.97,SE,138,1.0,4.0,95,0.00,,,0.08,0,Wunderground v.1.15,2013-07-29 02:42:00,
2013-07-28 22:52:00,66.6,65.1,29.96,SE,132,2.0,3.0,95,0.00,,,0.08,0,Wunderground v.1.15,2013-07-29 02:52:00,
2013-07-28 22:57:00,66.5,65.0,29.96,SE,130,3.0,9.0,95,0.00,,,0.08,0,Wunderground v.1.15,2013-07-29 02:57:00,
2013-07-28 23:02:00,66.4,64.9,29.96,ESE,110,3.0,9.0,95,0.00,,,0.08,0,Wunderground v.1.15,2013-07-29 03:02:00,
2013-07-28 23:17:00,66.3,65.1,29.97,East,101,1.0,1.0,96,0.00,,,0.08,0,Wunderground v.1.15,2013-07-29 03:17:00,
2013-07-28 23:22:00,66.3,65.1,29.97,East,101,0.0,1.0,96,0.00,,,0.08,0,Wunderground v.1.15,2013-07-29 03:22:00,
2013-07-28 23:27:00,66.3,65.1,29.97,East,101,0.0,0.0,96,0.00,,,0.08,0,Wunderground v.1.15,2013-07-29 03:27:00,
2013-07-28 23:32:00,66.4,65.2,29.98,East,101,0.0,0.0,96,0.00,,,0.08,0,Wunderground v.1.15,2013-07-29 03:32:00,
2013-07-28 23:37:00,66.4,65.2,29.98,East,101,0.0,0.0,96,0.00,,,0.08,0,Wunderground v.1.15,2013-07-29 03:37:00,
2013-07-28 23:42:00,66.4,65.2,29.98,East,101,0.0,0.0,96,0.00,,,0.08,0,Wunderground v.1.15,2013-07-29 03:42:00,
2013-07-28 23:47:00,66.4,65.2,29.97,ESE,107,0.0,1.0,96,0.00,,,0.08,0,Wunderground v.1.15,2013-07-29 03:47:00,
2013-07-28 23:52:00,66.4,65.2,29.98,East,87,0.0,1.0,96,0.00,,,0.08,0,Wunderground v.1.15,2013-07-29 03:52:00,
2013-07-28 23:57:00,66.4,65.2,29.97,East,87,0.0,0.0,96,0.00,,,0.00,0,Wunderground v.1.15,2013-07-29 03:57:00,